Time;durP1;ratioP1;P1;durP2;ratioP2;P2;SDS_P1;SDS_P2;PMS_P1;PMS_P2;Temp;Humidity;BMP_temperature;BMP_pressure;BME280_temperature;BME280_humidity;BME280_pressure;Samples;Min_cycle;Max_cycle;Signal;HPM_P1;HPM_P2
2023/09/09 00:00:30;;;;;;;8.02;4.25;;;;;;;-141.50;100.00;63355.56;5052921;28;20065;-79
2023/09/09 00:02:57;;;;;;;7.97;3.95;;;;;;;-141.50;100.00;63355.56;5054817;28;20053;-79
2023/09/09 00:05:29;;;;;;;8.63;4.10;;;;;;;-141.50;100.00;63355.56;5056986;28;20046;-77
2023/09/09 00:07:58;;;;;;;5.85;3.85;;;;;;;-141.50;100.00;63355.56;5046923;28;20088;-78
2023/09/09 00:10:25;;;;;;;8.25;4.28;;;;;;;-141.50;100.00;63355.56;5064231;28;20047;-78
2023/09/09 00:12:52;;;;;;;8.25;4.28;;;;;;;-141.50;100.00;63355.56;5060989;28;20124;-78
2023/09/09 00:15:19;;;;;;;7.78;4.28;;;;;;;-141.50;100.00;63355.56;5038860;28;20053;-79
2023/09/09 00:17:45;;;;;;;7.35;3.83;;;;;;;-141.50;100.00;63355.56;5063993;28;20075;-78
2023/09/09 00:20:14;;;;;;;8.57;4.30;;;;;;;-141.50;100.00;63355.56;5056700;28;20049;-79
2023/09/09 00:22:41;;;;;;;9.38;4.28;;;;;;;-141.50;100.00;63355.56;5059994;28;20056;-77
2023/09/09 00:25:08;;;;;;;7.22;3.95;;;;;;;-141.50;100.00;63355.56;5046255;28;20047;-79
2023/09/09 00:27:35;;;;;;;7.03;4.38;;;;;;;-141.50;100.00;63355.56;5060483;28;20151;-77
2023/09/09 00:30:02;;;;;;;7.57;3.70;;;;;;;-141.50;100.00;63355.56;5059872;28;20049;-78
2023/09/09 00:32:29;;;;;;;9.57;4.38;;;;;;;-141.50;100.00;63355.56;5063634;28;20049;-79
2023/09/09 00:34:56;;;;;;;9.00;4.47;;;;;;;-141.50;100.00;63355.56;5046360;28;20037;-79
2023/09/09 00:37:23;;;;;;;7.88;4.20;;;;;;;-141.50;100.00;63355.56;5047316;28;20052;-80
2023/09/09 00:39:50;;;;;;;6.68;3.78;;;;;;;-141.50;100.00;63355.56;5062844;28;20045;-77
2023/09/09 00:42:17;;;;;;;8.55;4.75;;;;;;;-141.50;100.00;63355.56;5063177;28;20227;-78
2023/09/09 00:44:44;;;;;;;8.45;4.30;;;;;;;-141.50;100.00;63355.56;5062830;28;20041;-78
2023/09/09 00:47:11;;;;;;;10.63;4.50;;;;;;;-141.50;100.00;63355.56;5047360;28;20045;-79
2023/09/09 00:49:38;;;;;;;7.97;4.25;;;;;;;-141.50;100.00;63355.56;5059559;28;20041;-78
2023/09/09 00:52:05;;;;;;;9.60;4.43;;;;;;;-141.50;100.00;63355.56;5059183;28;20045;-79
2023/09/09 00:54:32;;;;;;;6.35;4.07;;;;;;;-141.50;100.00;63355.56;5039905;28;20053;-79
2023/09/09 00:57:02;;;;;;;5.90;4.10;;;;;;;-141.50;100.00;63355.56;5034724;28;20056;-78
2023/09/09 00:59:30;;;;;;;9.18;4.30;;;;;;;-141.50;100.00;63355.56;5039336;28;20040;-79
2023/09/09 01:01:57;;;;;;;7.15;4.05;;;;;;;-141.50;100.00;63355.56;5044363;28;21124;-79
2023/09/09 01:04:24;;;;;;;8.30;4.25;;;;;;;-141.50;100.00;63355.56;5047619;28;20040;-79
2023/09/09 01:06:52;;;;;;;6.57;3.80;;;;;;;-141.50;100.00;63355.56;5062512;28;20048;-78
2023/09/09 01:09:20;;;;;;;7.13;4.15;;;;;;;-141.50;100.00;63355.56;5063206;28;20045;-79
2023/09/09 01:11:47;;;;;;;6.97;4.10;;;;;;;-141.50;100.00;63355.56;5061100;28;20049;-77
2023/09/09 01:14:14;;;;;;;10.18;4.28;;;;;;;-141.50;100.00;63355.56;5042541;28;20126;-78
2023/09/09 01:16:41;;;;;;;9.25;4.82;;;;;;;-141.50;100.00;63355.56;5045615;28;20081;-78
2023/09/09 01:19:12;;;;;;;6.28;3.95;;;;;;;-141.50;100.00;63355.56;5062544;28;20071;-77
2023/09/09 01:21:41;;;;;;;7.47;4.20;;;;;;;-141.50;100.00;63355.56;5042815;28;20045;-79
2023/09/09 01:24:08;;;;;;;8.25;4.45;;;;;;;-141.50;100.00;63355.56;5045228;28;20045;-77
2023/09/09 01:26:35;;;;;;;7.85;4.32;;;;;;;-141.50;100.00;63355.56;5043514;28;20051;-79
2023/09/09 01:29:02;;;;;;;7.22;4.10;;;;;;;-141.50;100.00;63355.56;5060799;28;20059;-78
2023/09/09 01:31:28;;;;;;;10.27;4.60;;;;;;;-141.50;100.00;63355.56;5040635;28;20052;-78
2023/09/09 01:33:57;;;;;;;7.85;3.97;;;;;;;-141.50;100.00;63355.56;5041896;28;20136;-78
2023/09/09 01:36:24;;;;;;;7.93;4.20;;;;;;;-141.50;100.00;63355.56;5057610;28;20037;-77
2023/09/09 01:38:51;;;;;;;9.00;4.43;;;;;;;-141.50;100.00;63355.56;5052795;28;20048;-78
2023/09/09 01:41:18;;;;;;;9.27;4.57;;;;;;;-141.50;100.00;63355.56;5073882;28;20759;-78
2023/09/09 01:43:44;;;;;;;9.43;4.13;;;;;;;-141.50;100.00;63355.56;5072358;28;20063;-77
2023/09/09 01:46:11;;;;;;;9.20;4.28;;;;;;;-141.50;100.00;63355.56;5056554;28;20032;-77
2023/09/09 01:48:38;;;;;;;9.00;3.92;;;;;;;-141.50;100.00;63355.56;5050373;28;20065;-78
2023/09/09 01:51:06;;;;;;;8.20;4.50;;;;;;;-141.50;100.00;63355.56;5044586;28;20063;-78
2023/09/09 01:53:32;;;;;;;9.73;5.13;;;;;;;-141.50;100.00;63355.56;5053879;28;20041;-77
2023/09/09 01:55:59;;;;;;;9.10;4.50;;;;;;;-141.50;100.00;63355.56;5048455;28;20178;-78
2023/09/09 01:58:27;;;;;;;11.35;4.65;;;;;;;-141.50;100.00;63355.56;5048598;28;20065;-78
2023/09/09 02:00:54;;;;;;;6.80;4.15;;;;;;;-141.50;100.00;63355.56;5040479;28;20048;-78
2023/09/09 02:03:21;;;;;;;8.88;4.63;;;;;;;-141.50;100.00;63355.56;5041775;28;20045;-78
2023/09/09 02:05:48;;;;;;;8.25;4.60;;;;;;;-141.50;100.00;63355.56;5061743;28;20040;-78
2023/09/09 02:08:16;;;;;;;9.07;4.35;;;;;;;-141.50;100.00;63355.56;5065428;28;20040;-78
2023/09/09 02:10:43;;;;;;;7.53;4.47;;;;;;;-141.50;100.00;63355.56;5040688;28;20049;-78
2023/09/09 02:13:10;;;;;;;9.27;4.78;;;;;;;-141.50;100.00;63355.56;5047910;28;20045;-77
2023/09/09 02:15:37;;;;;;;6.80;3.97;;;;;;;-141.50;100.00;63355.56;5040484;28;20041;-78
2023/09/09 02:18:04;;;;;;;8.07;4.68;;;;;;;-141.50;100.00;63355.56;5063091;28;20063;-79
2023/09/09 02:20:30;;;;;;;8.00;4.30;;;;;;;-141.50;100.00;63355.56;5047094;28;20079;-78
2023/09/09 02:22:57;;;;;;;10.05;5.38;;;;;;;-141.50;100.00;63355.56;5046412;28;20053;-78
2023/09/09 02:25:26;;;;;;;7.70;4.40;;;;;;;-141.50;100.00;63355.56;5047675;28;20049;-78
2023/09/09 02:27:53;;;;;;;8.57;4.15;;;;;;;-141.50;100.00;63355.56;5062086;28;20041;-79
2023/09/09 02:30:21;;;;;;;8.75;4.53;;;;;;;-141.50;100.00;63355.56;5047016;28;20051;-78
2023/09/09 02:32:49;;;;;;;9.48;4.57;;;;;;;-141.50;100.00;63355.56;5040448;28;20045;-77
2023/09/09 02:35:16;;;;;;;6.68;4.20;;;;;;;-141.50;100.00;63355.56;5062167;28;20068;-78
2023/09/09 02:37:42;;;;;;;10.20;4.55;;;;;;;-141.50;100.00;63355.56;5030911;28;20041;-78
2023/09/09 02:40:10;;;;;;;8.50;4.72;;;;;;;-141.50;100.00;63355.56;5044866;28;20064;-78
2023/09/09 02:42:37;;;;;;;7.93;4.40;;;;;;;-141.50;100.00;63355.56;5044026;28;20048;-77
2023/09/09 02:45:04;;;;;;;9.23;4.68;;;;;;;-141.50;100.00;63355.56;5060014;28;20057;-79
2023/09/09 02:47:31;;;;;;;10.02;4.95;;;;;;;-141.50;100.00;63355.56;5050712;28;20048;-78
2023/09/09 02:49:58;;;;;;;7.75;4.63;;;;;;;-141.50;100.00;63355.56;5034322;28;20239;-78
2023/09/09 02:52:25;;;;;;;6.85;4.07;;;;;;;-141.50;100.00;63355.56;5041202;28;20064;-78
2023/09/09 02:54:52;;;;;;;9.00;4.30;;;;;;;-141.50;100.00;63355.56;5035578;28;20045;-77
2023/09/09 02:57:18;;;;;;;8.15;4.10;;;;;;;-141.50;100.00;63355.56;5041200;28;20079;-78
2023/09/09 02:59:45;;;;;;;9.85;4.45;;;;;;;-141.50;100.00;63355.56;5041650;28;20041;-79
2023/09/09 03:02:13;;;;;;;8.75;4.57;;;;;;;-141.50;100.00;63355.56;5027686;28;20056;-78
2023/09/09 03:04:40;;;;;;;8.20;4.55;;;;;;;-141.50;100.00;63355.56;5055899;28;20037;-78
2023/09/09 03:07:07;;;;;;;8.48;4.53;;;;;;;-141.50;100.00;63355.56;5057650;28;20048;-78
2023/09/09 03:09:36;;;;;;;11.93;4.93;;;;;;;-141.50;100.00;63355.56;5061971;28;20041;-79
2023/09/09 03:12:05;;;;;;;7.40;4.18;;;;;;;-141.50;100.00;63355.56;5061309;28;20112;-79
2023/09/09 03:14:32;;;;;;;7.88;4.38;;;;;;;-141.50;100.00;63355.56;5063464;28;20041;-79
2023/09/09 03:16:59;;;;;;;9.07;4.45;;;;;;;-141.50;100.00;63355.56;5062449;28;20094;-78
2023/09/09 03:19:27;;;;;;;8.13;4.88;;;;;;;-141.50;100.00;63355.56;5030338;28;20053;-77
2023/09/09 03:21:55;;;;;;;7.72;4.10;;;;;;;-141.50;100.00;63355.56;5040341;28;20676;-79
2023/09/09 03:24:22;;;;;;;7.63;4.40;;;;;;;-141.50;100.00;63355.56;5063336;28;20060;-78
2023/09/09 03:26:49;;;;;;;8.63;4.35;;;;;;;-141.50;100.00;63355.56;5044370;28;20079;-77
2023/09/09 03:29:16;;;;;;;7.15;4.10;;;;;;;-141.50;100.00;63355.56;5029758;28;20240;-77
2023/09/09 03:31:43;;;;;;;9.25;4.57;;;;;;;-141.50;100.00;63355.56;5042815;28;20055;-77
2023/09/09 03:34:10;;;;;;;10.02;4.20;;;;;;;-141.50;100.00;63355.56;5063742;28;20100;-77
2023/09/09 03:36:37;;;;;;;7.22;3.92;;;;;;;-141.50;100.00;63355.56;5052630;28;20060;-76
2023/09/09 03:39:04;;;;;;;7.38;3.97;;;;;;;-141.50;100.00;63355.56;5051374;28;20758;-78
2023/09/09 03:41:31;;;;;;;6.63;4.03;;;;;;;-141.50;100.00;63355.56;5064487;28;20056;-78
2023/09/09 03:43:58;;;;;;;8.05;4.38;;;;;;;-141.50;100.00;63355.56;5028307;28;20053;-77
2023/09/09 03:46:26;;;;;;;8.15;4.50;;;;;;;-141.50;100.00;63355.56;5039483;28;20048;-78
2023/09/09 03:48:55;;;;;;;6.93;3.80;;;;;;;-141.50;100.00;63355.56;5039092;28;20514;-78
2023/09/09 03:51:22;;;;;;;7.95;4.00;;;;;;;-141.50;100.00;63355.56;5043161;28;20049;-79
2023/09/09 03:53:49;;;;;;;7.53;4.10;;;;;;;-141.50;100.00;63355.56;5044675;28;20527;-78
2023/09/09 03:56:17;;;;;;;10.90;4.20;;;;;;;-141.50;100.00;63355.56;5045041;28;20257;-77
2023/09/09 03:58:44;;;;;;;8.75;4.40;;;;;;;-141.50;100.00;63355.56;5044870;28;20067;-77
2023/09/09 04:01:12;;;;;;;6.85;4.05;;;;;;;-141.50;100.00;63355.56;5044851;28;20033;-78
2023/09/09 04:03:40;;;;;;;7.32;3.80;;;;;;;-141.50;100.00;63355.56;5060208;28;20067;-77
2023/09/09 04:06:12;;;;;;;7.28;3.95;;;;;;;-141.50;100.00;63355.56;5031215;28;20033;-79
2023/09/09 04:08:40;;;;;;;6.18;3.63;;;;;;;-141.50;100.00;63355.56;5064036;28;20049;-78
2023/09/09 04:11:08;;;;;;;8.70;4.57;;;;;;;-141.50;100.00;63355.56;5063417;28;20615;-79
2023/09/09 04:13:37;;;;;;;8.57;4.45;;;;;;;-141.50;100.00;63355.56;5042102;28;20095;-79
2023/09/09 04:16:05;;;;;;;6.65;3.75;;;;;;;-141.50;100.00;63355.56;5061730;28;20052;-78
2023/09/09 04:18:32;;;;;;;10.50;4.13;;;;;;;-141.50;100.00;63355.56;5063785;28;20049;-78
2023/09/09 04:21:11;;;;;;;8.40;4.20;;;;;;;-141.50;100.00;63355.56;5039717;28;20653;-78
2023/09/09 04:23:38;;;;;;;7.88;4.20;;;;;;;-141.50;100.00;63355.56;5011575;28;20046;-76
2023/09/09 04:26:06;;;;;;;7.80;4.03;;;;;;;-141.50;100.00;63355.56;5024529;28;20060;-76
2023/09/09 04:28:33;;;;;;;8.57;4.72;;;;;;;-141.50;100.00;63355.56;5022857;28;20549;-76
2023/09/09 04:31:03;;;;;;;8.18;4.63;;;;;;;-141.50;100.00;63355.56;5007246;28;20049;-76
2023/09/09 04:33:32;;;;;;;9.77;4.53;;;;;;;-141.50;100.00;63355.56;5029223;28;20084;-76
2023/09/09 04:36:02;;;;;;;8.55;5.13;;;;;;;-141.50;100.00;63355.56;5045307;28;20043;-76
2023/09/09 04:38:29;;;;;;;6.88;4.00;;;;;;;-141.50;100.00;63355.56;5042571;28;20124;-76
2023/09/09 04:40:56;;;;;;;7.30;4.03;;;;;;;-141.50;100.00;63355.56;5021392;28;21018;-76
2023/09/09 04:43:23;;;;;;;9.05;4.43;;;;;;;-141.50;100.00;63355.56;5005852;28;20041;-76
2023/09/09 04:45:50;;;;;;;7.53;4.15;;;;;;;-141.50;100.00;63355.56;5041993;28;20037;-76
2023/09/09 04:48:17;;;;;;;6.72;4.18;;;;;;;-141.50;100.00;63355.56;5033793;28;20049;-76
2023/09/09 04:50:44;;;;;;;8.45;3.85;;;;;;;-141.50;100.00;63355.56;5024065;28;20537;-76
2023/09/09 04:53:12;;;;;;;7.70;4.25;;;;;;;-141.50;100.00;63355.56;5020054;28;20037;-76
2023/09/09 04:55:39;;;;;;;9.00;4.40;;;;;;;-141.50;100.00;63355.56;5023297;28;20103;-77
2023/09/09 04:58:10;;;;;;;10.40;4.15;;;;;;;-141.50;100.00;63355.56;5020956;28;20044;-77
2023/09/09 05:00:38;;;;;;;9.18;4.57;;;;;;;-141.50;100.00;63355.56;5046184;28;20040;-78
2023/09/09 05:03:05;;;;;;;8.35;4.18;;;;;;;-141.50;100.00;63355.56;5019225;28;20068;-77
2023/09/09 05:05:33;;;;;;;7.93;4.50;;;;;;;-141.50;100.00;63355.56;5034736;28;20037;-78
2023/09/09 05:08:00;;;;;;;9.20;4.90;;;;;;;-141.50;100.00;63355.56;5038471;28;20056;-79
2023/09/09 05:10:29;;;;;;;7.13;4.07;;;;;;;-141.50;100.00;63355.56;5047617;28;20071;-78
2023/09/09 05:12:57;;;;;;;11.38;4.78;;;;;;;-141.50;100.00;63355.56;5058438;28;20119;-79
2023/09/09 05:15:25;;;;;;;8.43;4.55;;;;;;;-141.50;100.00;63355.56;5027452;28;20048;-79
2023/09/09 05:17:52;;;;;;;8.25;4.10;;;;;;;-141.50;100.00;63355.56;5044953;28;20049;-79
2023/09/09 05:20:19;;;;;;;11.02;4.68;;;;;;;-141.50;100.00;63355.56;5025404;28;20101;-80
2023/09/09 05:22:46;;;;;;;8.48;4.72;;;;;;;-141.50;100.00;63355.56;5061715;28;20048;-78
2023/09/09 05:25:13;;;;;;;8.10;4.78;;;;;;;-141.50;100.00;63355.56;5061291;28;20080;-77
2023/09/09 05:27:41;;;;;;;8.52;4.82;;;;;;;-141.50;100.00;63355.56;5054810;28;20040;-76
2023/09/09 05:30:08;;;;;;;8.85;4.50;;;;;;;-141.50;100.00;63355.56;5064533;28;20312;-77
2023/09/09 05:32:35;;;;;;;9.70;4.45;;;;;;;-141.50;100.00;63355.56;5044487;28;20067;-78
2023/09/09 05:35:03;;;;;;;7.40;4.57;;;;;;;-141.50;100.00;63355.56;5057335;28;20053;-78
2023/09/09 05:37:31;;;;;;;9.63;4.82;;;;;;;-141.50;100.00;63355.56;5050126;28;20044;-77
2023/09/09 05:40:00;;;;;;;8.32;4.50;;;;;;;-141.50;100.00;63355.56;5047654;28;20156;-76
2023/09/09 05:42:30;;;;;;;7.55;4.75;;;;;;;-141.50;100.00;63355.56;5053117;28;20037;-79
2023/09/09 05:44:57;;;;;;;9.90;4.43;;;;;;;-141.50;100.00;63355.56;5064643;28;20761;-79
2023/09/09 05:47:24;;;;;;;7.78;4.30;;;;;;;-141.50;100.00;63355.56;5065257;28;20041;-79
2023/09/09 05:49:50;;;;;;;8.45;4.65;;;;;;;-141.50;100.00;63355.56;5071945;28;20033;-79
2023/09/09 05:52:17;;;;;;;7.82;4.22;;;;;;;-141.50;100.00;63355.56;5051613;28;20045;-78
2023/09/09 05:54:44;;;;;;;9.52;4.70;;;;;;;-141.50;100.00;63355.56;5045838;28;20072;-77
2023/09/09 05:57:11;;;;;;;8.40;4.55;;;;;;;-141.50;100.00;63355.56;5045333;28;20542;-77
2023/09/09 05:59:39;;;;;;;9.70;5.07;;;;;;;-141.50;100.00;63355.56;5037151;28;20064;-79
2023/09/09 06:02:08;;;;;;;9.63;5.00;;;;;;;-141.50;100.00;63355.56;5036151;28;20152;-77
2023/09/09 06:04:35;;;;;;;8.32;4.47;;;;;;;-141.50;100.00;63355.56;5027597;28;20047;-76
2023/09/09 06:07:02;;;;;;;11.63;5.35;;;;;;;-141.50;100.00;63355.56;5050619;28;20331;-82
2023/09/09 06:09:29;;;;;;;10.75;5.80;;;;;;;-141.50;100.00;63355.56;5042687;28;20049;-80
2023/09/09 06:11:56;;;;;;;10.15;4.97;;;;;;;-141.50;100.00;63355.56;5059623;28;20076;-79
2023/09/09 06:14:23;;;;;;;7.63;4.32;;;;;;;-141.50;100.00;63355.56;5042742;28;20197;-79
2023/09/09 06:16:50;;;;;;;8.00;4.50;;;;;;;-141.50;100.00;63355.56;5041281;28;20069;-80
2023/09/09 06:19:17;;;;;;;9.55;5.10;;;;;;;-141.50;100.00;63355.56;5027284;28;20048;-80
2023/09/09 06:21:44;;;;;;;8.77;4.93;;;;;;;-141.50;100.00;63355.56;5051926;28;20037;-79
2023/09/09 06:24:12;;;;;;;8.35;4.28;;;;;;;-141.50;100.00;63355.56;5031713;28;20037;-77
2023/09/09 06:26:39;;;;;;;7.28;4.35;;;;;;;-141.50;100.00;63355.56;5046780;28;20045;-77
2023/09/09 06:29:07;;;;;;;8.38;4.45;;;;;;;-141.50;100.00;63355.56;5029057;28;20045;-78
2023/09/09 06:31:34;;;;;;;9.52;4.47;;;;;;;-141.50;100.00;63355.56;5027585;28;20037;-79
2023/09/09 06:34:04;;;;;;;6.82;3.88;;;;;;;-141.50;100.00;63355.56;5026330;28;20052;-78
2023/09/09 06:36:31;;;;;;;6.70;4.05;;;;;;;-141.50;100.00;63355.56;5022369;28;20104;-78
2023/09/09 06:38:58;;;;;;;9.88;4.30;;;;;;;-141.50;100.00;63355.56;5034314;28;20068;-79
2023/09/09 06:41:25;;;;;;;6.28;3.53;;;;;;;-141.50;100.00;63355.56;5053772;28;20052;-77
2023/09/09 06:43:51;;;;;;;6.40;3.97;;;;;;;-141.50;100.00;63355.56;5053569;28;20049;-78
2023/09/09 06:46:18;;;;;;;8.32;3.92;;;;;;;-141.50;100.00;63355.56;5036907;28;20048;-78
2023/09/09 06:48:45;;;;;;;8.07;4.25;;;;;;;-141.50;100.00;63355.56;5027841;28;20392;-76
2023/09/09 06:51:12;;;;;;;7.47;4.15;;;;;;;-141.50;100.00;63355.56;5024384;28;20045;-77
2023/09/09 06:53:39;;;;;;;6.25;3.92;;;;;;;-141.50;100.00;63355.56;5037518;28;20044;-78
2023/09/09 06:56:07;;;;;;;8.65;4.22;;;;;;;-141.50;100.00;63355.56;5046917;28;20037;-79
2023/09/09 06:58:35;;;;;;;7.20;3.65;;;;;;;-141.50;100.00;63355.56;5013919;28;20586;-75
2023/09/09 07:01:02;;;;;;;7.55;3.80;;;;;;;-141.50;100.00;63355.56;5032648;28;20052;-80
2023/09/09 07:03:29;;;;;;;5.68;3.15;;;;;;;-141.50;100.00;63355.56;5024615;28;20122;-78
2023/09/09 07:05:59;;;;;;;6.07;3.65;;;;;;;-141.50;100.00;63355.56;5054473;28;20090;-78
2023/09/09 07:08:27;;;;;;;10.05;3.80;;;;;;;-141.50;100.00;63355.56;5038846;28;20577;-79
2023/09/09 07:10:56;;;;;;;9.18;4.28;;;;;;;-141.50;100.00;63355.56;5027855;28;20041;-78
2023/09/09 07:13:23;;;;;;;5.68;3.38;;;;;;;-141.50;100.00;63355.56;5026877;28;20041;-78
2023/09/09 07:15:53;;;;;;;6.82;3.40;;;;;;;-141.50;100.00;63355.56;5030708;28;20233;-78
2023/09/09 07:18:22;;;;;;;5.97;3.33;;;;;;;-141.50;100.00;63355.56;5032900;28;21978;-78
2023/09/09 07:20:49;;;;;;;7.05;3.40;;;;;;;-141.50;100.00;63355.56;5048500;28;22356;-79
2023/09/09 07:23:17;;;;;;;6.43;3.55;;;;;;;-141.50;100.00;63355.56;5047939;28;20535;-79
2023/09/09 07:25:47;;;;;;;5.93;3.60;;;;;;;-141.50;100.00;63355.56;5028373;28;20596;-79
2023/09/09 07:28:14;;;;;;;8.52;3.25;;;;;;;-141.50;100.00;63355.56;5046696;28;20442;-80
2023/09/09 07:30:41;;;;;;;5.32;3.35;;;;;;;-141.50;100.00;63355.56;5046314;28;20167;-79
2023/09/09 07:33:08;;;;;;;5.75;3.20;;;;;;;-141.50;100.00;63355.56;5027890;28;20056;-78
2023/09/09 07:35:35;;;;;;;10.15;3.55;;;;;;;-141.50;100.00;63355.56;5040062;28;20044;-77
2023/09/09 07:38:04;;;;;;;4.85;3.13;;;;;;;-141.50;100.00;63355.56;5018574;28;20049;-79
2023/09/09 07:40:32;;;;;;;5.45;2.75;;;;;;;-141.50;100.00;63355.56;5033301;28;20076;-79
2023/09/09 07:43:00;;;;;;;6.53;3.35;;;;;;;-141.50;100.00;63355.56;5050609;28;21129;-81
2023/09/09 07:45:28;;;;;;;4.50;2.63;;;;;;;-141.50;100.00;63355.56;5041414;28;20111;-80
2023/09/09 07:47:55;;;;;;;9.60;3.28;;;;;;;-141.50;100.00;63355.56;5041612;28;20144;-81
2023/09/09 07:50:22;;;;;;;4.43;2.78;;;;;;;-141.50;100.00;63355.56;5050416;28;20436;-81
2023/09/09 07:52:52;;;;;;;8.30;2.60;;;;;;;-141.50;100.00;63355.56;5049317;28;20474;-82
2023/09/09 07:55:19;;;;;;;6.47;3.03;;;;;;;-141.50;100.00;63355.56;5014005;28;20052;-80
2023/09/09 07:57:46;;;;;;;6.15;2.90;;;;;;;-141.50;100.00;63355.56;5050729;28;20120;-81
2023/09/09 08:00:13;;;;;;;4.47;2.90;;;;;;;-141.50;100.00;63355.56;5039433;28;20225;-78
2023/09/09 08:02:40;;;;;;;5.95;3.13;;;;;;;-141.50;100.00;63355.56;5026731;28;20107;-80
2023/09/09 08:05:08;;;;;;;5.47;2.85;;;;;;;-141.50;100.00;63355.56;5011397;28;20675;-80
2023/09/09 08:07:35;;;;;;;4.63;2.70;;;;;;;-141.50;100.00;63355.56;5043529;28;20080;-80
2023/09/09 08:10:02;;;;;;;6.85;2.80;;;;;;;-141.50;100.00;63355.56;5045374;28;20049;-81
2023/09/09 08:12:29;;;;;;;4.57;2.75;;;;;;;-141.50;100.00;63355.56;5044141;28;20079;-82
2023/09/09 08:15:07;;;;;;;7.80;2.70;;;;;;;-141.50;100.00;63355.56;5025093;28;20140;-81
2023/09/09 08:17:34;;;;;;;3.63;2.50;;;;;;;-141.50;100.00;63355.56;5039664;28;20753;-79
2023/09/09 08:20:07;;;;;;;4.38;2.72;;;;;;;-141.50;100.00;63355.56;5025455;28;20049;-80
2023/09/09 08:22:35;;;;;;;4.55;2.28;;;;;;;-141.50;100.00;63355.56;5042617;28;20056;-79
2023/09/09 08:25:02;;;;;;;5.53;2.90;;;;;;;-141.50;100.00;63355.56;5025209;28;20044;-81
2023/09/09 08:27:29;;;;;;;4.43;2.50;;;;;;;-141.50;100.00;63355.56;5038198;28;20083;-81
2023/09/09 08:29:57;;;;;;;5.68;2.97;;;;;;;-141.50;100.00;63355.56;5042044;28;20074;-80
2023/09/09 08:32:24;;;;;;;5.32;2.80;;;;;;;-141.50;100.00;63355.56;5027414;28;20045;-77
2023/09/09 08:34:54;;;;;;;8.30;2.70;;;;;;;-141.50;100.00;63355.56;5035220;28;20049;-80
2023/09/09 08:37:21;;;;;;;4.15;2.78;;;;;;;-141.50;100.00;63355.56;5034773;28;20060;-76
2023/09/09 08:39:53;;;;;;;5.22;3.20;;;;;;;-141.50;100.00;63355.56;5041646;28;20087;-79
2023/09/09 08:42:23;;;;;;;5.20;2.92;;;;;;;-141.50;100.00;63355.56;5044299;28;20044;-79
2023/09/09 08:45:14;;;;;;;4.78;2.90;;;;;;;-141.50;100.00;63355.56;5026496;28;20060;-79
2023/09/09 08:47:41;;;;;;;5.57;2.67;;;;;;;-141.50;100.00;63355.56;5042110;28;20521;-79
2023/09/09 08:50:10;;;;;;;4.68;2.80;;;;;;;-141.50;100.00;63355.56;5030606;28;20095;-77
2023/09/09 08:52:42;;;;;;;4.25;2.55;;;;;;;-141.50;100.00;63355.56;5047971;28;20041;-80
2023/09/09 08:55:10;;;;;;;5.13;2.33;;;;;;;-141.50;100.00;63355.56;5030441;28;20049;-79
2023/09/09 08:57:36;;;;;;;3.42;2.53;;;;;;;-141.50;100.00;63355.56;5038274;28;20132;-80
2023/09/09 09:00:04;;;;;;;4.10;2.58;;;;;;;-141.50;100.00;63355.56;5054351;28;20048;-79
2023/09/09 09:02:33;;;;;;;5.35;2.95;;;;;;;-141.50;100.00;63355.56;5049779;28;20480;-81
2023/09/09 09:05:03;;;;;;;5.63;2.90;;;;;;;-141.50;100.00;63355.56;5062532;28;20102;-80
2023/09/09 09:07:34;;;;;;;4.53;2.60;;;;;;;-141.50;100.00;63355.56;5028343;28;20048;-76
2023/09/09 09:10:01;;;;;;;4.53;2.60;;;;;;;-141.50;100.00;63355.56;5049149;28;20045;-81
2023/09/09 09:12:30;;;;;;;3.67;2.22;;;;;;;-141.50;100.00;63355.56;5030660;28;20095;-78
2023/09/09 09:14:57;;;;;;;4.13;2.80;;;;;;;-141.50;100.00;63355.56;5026530;28;20091;-77
2023/09/09 09:17:25;;;;;;;4.10;2.78;;;;;;;-141.50;100.00;63355.56;5028583;28;20049;-77
2023/09/09 09:19:53;;;;;;;4.13;2.47;;;;;;;-141.50;100.00;63355.56;5049302;28;20127;-78
2023/09/09 09:22:20;;;;;;;4.82;2.50;;;;;;;-141.50;100.00;63355.56;5049573;28;20138;-79
2023/09/09 09:24:47;;;;;;;4.13;2.30;;;;;;;-141.50;100.00;63355.56;5023902;28;20040;-77
2023/09/09 09:27:15;;;;;;;3.70;2.40;;;;;;;-141.50;100.00;63355.56;5030964;28;20060;-80
2023/09/09 09:29:47;;;;;;;4.82;2.47;;;;;;;-141.50;100.00;63355.56;5047934;28;20044;-78
2023/09/09 09:32:16;;;;;;;5.32;2.42;;;;;;;-141.50;100.00;63355.56;5026039;28;20064;-78
2023/09/09 09:34:43;;;;;;;4.13;2.13;;;;;;;-141.50;100.00;63355.56;5032402;28;20120;-80
2023/09/09 09:37:11;;;;;;;3.30;2.25;;;;;;;-141.50;100.00;63355.56;5030778;28;20059;-78
2023/09/09 09:39:38;;;;;;;4.25;2.13;;;;;;;-141.50;100.00;63355.56;5036334;28;20041;-81
2023/09/09 09:42:09;;;;;;;4.18;2.33;;;;;;;-141.50;100.00;63355.56;5057209;28;20459;-79
2023/09/09 09:44:37;;;;;;;3.42;2.30;;;;;;;-141.50;100.00;63355.56;5039632;28;20434;-79
2023/09/09 09:47:06;;;;;;;3.40;2.50;;;;;;;-141.50;100.00;63355.56;5038068;28;20060;-79
2023/09/09 09:49:37;;;;;;;3.95;2.55;;;;;;;-141.50;100.00;63355.56;5034173;28;20052;-79
2023/09/09 09:52:06;;;;;;;6.80;2.10;;;;;;;-141.50;100.00;63355.56;5047141;28;20052;-78
2023/09/09 09:54:35;;;;;;;4.28;2.40;;;;;;;-141.50;100.00;63355.56;5009959;28;20053;-77
2023/09/09 09:57:05;;;;;;;3.88;2.35;;;;;;;-141.50;100.00;63355.56;5024817;28;20057;-77
2023/09/09 09:59:35;;;;;;;3.58;2.38;;;;;;;-141.50;100.00;63355.56;5030685;28;20059;-77
2023/09/09 10:02:05;;;;;;;4.90;3.00;;;;;;;-141.50;100.00;63355.56;5049142;28;20130;-77
2023/09/09 10:04:42;;;;;;;3.95;2.55;;;;;;;-141.50;100.00;63355.56;5029557;28;20041;-77
2023/09/09 10:07:16;;;;;;;3.55;2.50;;;;;;;-141.50;100.00;63355.56;5045488;28;20457;-77
2023/09/09 10:09:55;;;;;;;4.13;2.58;;;;;;;-141.50;100.00;63355.56;5026856;28;20208;-77
2023/09/09 10:13:13;;;;;;;3.78;2.35;;;;;;;-141.50;100.00;63355.56;5044384;28;20124;-77
2023/09/09 10:15:41;;;;;;;3.65;2.45;;;;;;;-141.50;100.00;63355.56;4996034;28;20091;-77
2023/09/09 10:18:09;;;;;;;4.47;2.30;;;;;;;-141.50;100.00;63355.56;5005849;28;21528;-78
2023/09/09 10:20:38;;;;;;;4.43;2.40;;;;;;;-141.50;100.00;63355.56;5030937;28;20053;-78
2023/09/09 10:23:05;;;;;;;3.97;2.45;;;;;;;-141.50;100.00;63355.56;5040745;28;20049;-78
2023/09/09 10:25:34;;;;;;;4.00;2.63;;;;;;;-141.50;100.00;63355.56;5024703;28;20053;-77
2023/09/09 10:28:02;;;;;;;4.03;2.40;;;;;;;-141.50;100.00;63355.56;5048128;28;20364;-78
2023/09/09 10:30:30;;;;;;;2.83;2.30;;;;;;;-141.50;100.00;63355.56;5046299;28;20036;-78
2023/09/09 10:32:59;;;;;;;3.63;2.55;;;;;;;-141.50;100.00;63355.56;5045653;28;20063;-78
2023/09/09 10:35:28;;;;;;;3.60;2.40;;;;;;;-141.50;100.00;63355.56;5045245;28;20051;-77
2023/09/09 10:37:56;;;;;;;3.20;2.30;;;;;;;-141.50;100.00;63355.56;5030308;28;20043;-79
2023/09/09 10:40:25;;;;;;;4.60;2.58;;;;;;;-141.50;100.00;63355.56;5046712;28;20094;-77
2023/09/09 10:42:52;;;;;;;2.85;2.35;;;;;;;-141.50;100.00;63355.56;5029852;28;20156;-78
2023/09/09 10:45:30;;;;;;;5.22;2.20;;;;;;;-141.50;100.00;63355.56;5046443;28;20045;-78
2023/09/09 10:48:00;;;;;;;3.72;2.63;;;;;;;-141.50;100.00;63355.56;5012966;28;20469;-78
2023/09/09 10:50:49;;;;;;;3.45;2.70;;;;;;;-141.50;100.00;63355.56;5023262;28;20037;-78
2023/09/09 10:53:19;;;;;;;2.53;2.00;;;;;;;-141.50;100.00;63355.56;5018937;28;20265;-78
2023/09/09 10:55:47;;;;;;;3.10;2.45;;;;;;;-141.50;100.00;63355.56;5044779;28;20052;-78
2023/09/09 10:58:19;;;;;;;3.25;2.33;;;;;;;-141.50;100.00;63355.56;5042982;28;20526;-78
2023/09/09 11:00:50;;;;;;;3.42;2.47;;;;;;;-141.50;100.00;63355.56;5027526;28;20493;-77
2023/09/09 11:03:27;;;;;;;3.35;2.45;;;;;;;-141.50;100.00;63355.56;5042493;28;20056;-77
2023/09/09 11:06:07;;;;;;;3.45;2.35;;;;;;;-141.50;100.00;63355.56;5027373;28;20048;-79
2023/09/09 11:08:44;;;;;;;3.42;2.30;;;;;;;-141.50;100.00;63355.56;5012645;28;20076;-78
2023/09/09 11:11:14;;;;;;;3.75;2.42;;;;;;;-141.50;100.00;63355.56;5027879;28;20053;-78
2023/09/09 11:13:43;;;;;;;4.10;2.50;;;;;;;-141.50;100.00;63355.56;5024593;28;20091;-78